Time;durP1;ratioP1;P1;durP2;ratioP2;P2;SDS_P1;SDS_P2;PMS_P1;PMS_P2;Temp;Humidity;BMP_temperature;BMP_pressure;BME280_temperature;BME280_humidity;BME280_pressure;Samples;Min_cycle;Max_cycle;Signal;HPM_P1;HPM_P2
2023/04/18 00:01:14;;;;;;;14.63;10.60;;;10.90;99.90;;;;;;6186318;23;20031;-94
2023/04/18 00:03:40;;;;;;;15.88;10.32;;;10.90;99.90;;;;;;6185835;23;20013;-93
2023/04/18 00:06:05;;;;;;;13.00;10.02;;;10.80;99.90;;;;;;6185733;23;20021;-93
2023/04/18 00:08:32;;;;;;;12.68;10.15;;;10.80;99.90;;;;;;6186407;23;20162;-92
2023/04/18 00:10:58;;;;;;;13.85;10.20;;;10.70;99.90;;;;;;6186095;23;20091;-93
2023/04/18 00:13:24;;;;;;;14.93;10.57;;;10.70;99.90;;;;;;6188174;23;20016;-92
2023/04/18 00:15:53;;;;;;;14.63;10.02;;;10.60;99.90;;;;;;6186165;23;20041;-94
2023/04/18 00:18:18;;;;;;;12.63;9.93;;;10.60;99.90;;;;;;6185521;23;20052;-93
2023/04/18 00:20:44;;;;;;;15.13;10.23;;;10.60;99.90;;;;;;6184869;23;20472;-95
2023/04/18 00:23:12;;;;;;;14.55;10.48;;;10.50;99.90;;;;;;6187412;23;20024;-94
2023/04/18 00:25:38;;;;;;;14.30;10.70;;;10.50;99.90;;;;;;6185766;23;20017;-94
2023/04/18 00:28:04;;;;;;;15.25;10.43;;;10.40;99.90;;;;;;6185111;23;20024;-94
2023/04/18 00:30:30;;;;;;;15.18;10.75;;;10.40;99.90;;;;;;6186996;23;20009;-94
2023/04/18 00:32:55;;;;;;;13.25;10.20;;;10.40;99.90;;;;;;6184950;23;20020;-93
2023/04/18 00:35:21;;;;;;;16.00;10.02;;;10.30;99.90;;;;;;6186913;23;20058;-94
2023/04/18 00:37:46;;;;;;;15.55;10.05;;;10.30;99.90;;;;;;6186228;23;20511;-94
2023/04/18 00:40:12;;;;;;;12.82;9.77;;;10.30;99.90;;;;;;6186859;23;20021;-93
2023/04/18 00:42:38;;;;;;;13.35;10.13;;;10.20;99.90;;;;;;6185284;23;20036;-94
2023/04/18 00:45:04;;;;;;;13.23;9.88;;;10.10;99.90;;;;;;6185208;23;20044;-93
2023/04/18 00:47:29;;;;;;;15.45;9.65;;;10.10;99.90;;;;;;6185324;23;20047;-93
2023/04/18 00:49:55;;;;;;;13.80;9.50;;;10.10;99.90;;;;;;6185057;23;20013;-95
2023/04/18 00:52:23;;;;;;;13.63;9.48;;;10.10;99.90;;;;;;6186872;23;20010;-94
2023/04/18 00:54:49;;;;;;;14.07;9.52;;;10.00;99.90;;;;;;6184675;23;20021;-93
2023/04/18 00:57:15;;;;;;;14.05;9.50;;;9.90;99.90;;;;;;6189900;23;20067;-93
2023/04/18 00:59:41;;;;;;;13.43;9.55;;;9.90;99.90;;;;;;6189390;23;20021;-94
2023/04/18 01:02:07;;;;;;;14.10;9.73;;;9.90;99.90;;;;;;6189817;23;20017;-95
2023/04/18 01:04:32;;;;;;;15.95;9.38;;;9.80;99.90;;;;;;6189757;23;20544;-92
2023/04/18 01:06:59;;;;;;;12.90;9.48;;;9.80;99.90;;;;;;6216174;23;20017;-94
2023/04/18 01:09:25;;;;;;;13.77;10.00;;;9.80;99.90;;;;;;6189896;23;20024;-93
2023/04/18 01:11:51;;;;;;;13.00;8.88;;;9.70;99.90;;;;;;6215508;23;20074;-93
2023/04/18 01:14:18;;;;;;;13.10;9.43;;;9.70;99.90;;;;;;6189850;23;20017;-93
2023/04/18 01:16:46;;;;;;;13.90;9.55;;;9.70;99.90;;;;;;6215568;23;20353;-94
2023/04/18 01:19:12;;;;;;;13.50;9.48;;;9.70;99.90;;;;;;6189762;23;20017;-95
2023/04/18 01:21:42;;;;;;;13.30;9.20;;;9.60;99.90;;;;;;6215641;23;20068;-94
2023/04/18 01:24:17;;;;;;;14.02;9.55;;;9.60;99.90;;;;;;6216754;23;20021;-94
2023/04/18 01:26:44;;;;;;;18.35;10.18;;;9.60;99.90;;;;;;6217236;23;20019;-94
2023/04/18 01:29:10;;;;;;;14.73;9.05;;;9.50;99.90;;;;;;6217113;23;20071;-93
2023/04/18 01:31:37;;;;;;;14.38;10.30;;;9.50;99.90;;;;;;6189554;23;20020;-94
2023/04/18 01:34:04;;;;;;;14.52;8.93;;;9.50;99.90;;;;;;6190161;23;20016;-93
2023/04/18 01:36:30;;;;;;;15.50;10.30;;;9.50;99.90;;;;;;6216375;23;20052;-93
2023/04/18 01:38:56;;;;;;;18.83;9.93;;;9.50;99.90;;;;;;6189170;23;20032;-93
2023/04/18 01:41:22;;;;;;;12.77;9.35;;;9.50;99.90;;;;;;6189890;23;20457;-93
2023/04/18 01:43:47;;;;;;;13.95;9.63;;;9.40;99.90;;;;;;6189913;23;20344;-91
2023/04/18 01:46:13;;;;;;;20.92;9.90;;;9.40;99.90;;;;;;6189146;23;20111;-93
2023/04/18 01:48:39;;;;;;;15.07;9.35;;;9.40;99.90;;;;;;6189463;23;20075;-92
2023/04/18 01:51:04;;;;;;;15.85;10.10;;;9.40;99.90;;;;;;6189420;23;20445;-93
2023/04/18 01:53:31;;;;;;;13.65;9.57;;;9.40;99.90;;;;;;6189329;23;20016;-92
2023/04/18 01:55:57;;;;;;;16.42;9.73;;;9.30;99.90;;;;;;6209606;23;20092;-93
2023/04/18 01:58:24;;;;;;;14.68;10.27;;;9.30;99.90;;;;;;6186381;23;20017;-92
2023/04/18 02:00:51;;;;;;;12.57;9.50;;;9.30;99.90;;;;;;6185852;23;20445;-91
2023/04/18 02:03:17;;;;;;;15.18;9.25;;;9.30;99.90;;;;;;6186681;23;20016;-93
2023/04/18 02:05:42;;;;;;;14.07;9.00;;;9.30;99.90;;;;;;6185841;23;20035;-93
2023/04/18 02:08:10;;;;;;;14.45;9.35;;;9.30;99.90;;;;;;6188329;23;20329;-93
2023/04/18 02:10:36;;;;;;;11.77;9.27;;;9.30;99.90;;;;;;6186714;23;20021;-93
2023/04/18 02:13:01;;;;;;;12.98;9.38;;;9.20;99.90;;;;;;6186494;23;20024;-92
2023/04/18 02:15:27;;;;;;;13.00;9.60;;;9.20;99.90;;;;;;6188065;23;20075;-93
2023/04/18 02:17:53;;;;;;;13.25;9.15;;;9.10;99.90;;;;;;6186231;23;20017;-93
2023/04/18 02:20:19;;;;;;;13.50;9.40;;;9.10;99.90;;;;;;6185901;23;20056;-92
2023/04/18 02:22:46;;;;;;;13.80;9.48;;;9.10;99.90;;;;;;6187882;23;20045;-91
2023/04/18 02:25:11;;;;;;;12.95;9.52;;;9.00;99.90;;;;;;6188040;23;20067;-93
2023/04/18 02:27:37;;;;;;;12.88;9.63;;;9.00;99.90;;;;;;6187502;23;20040;-92
2023/04/18 02:30:02;;;;;;;14.05;10.00;;;9.00;99.90;;;;;;6186577;23;20529;-92
2023/04/18 02:32:28;;;;;;;14.52;9.73;;;9.00;99.90;;;;;;6187926;23;20010;-93
2023/04/18 02:34:54;;;;;;;13.88;9.40;;;8.90;99.90;;;;;;6187153;23;20024;-93
2023/04/18 02:37:20;;;;;;;13.88;10.02;;;8.90;99.90;;;;;;6188014;23;20029;-92
2023/04/18 02:39:45;;;;;;;12.30;9.68;;;8.90;99.90;;;;;;6185985;23;20017;-92
2023/04/18 02:42:11;;;;;;;12.52;9.80;;;8.90;99.90;;;;;;6186040;23;20080;-93
2023/04/18 02:44:36;;;;;;;11.57;9.50;;;8.90;99.90;;;;;;6187317;23;20437;-92
2023/04/18 02:47:02;;;;;;;13.57;9.95;;;8.80;99.90;;;;;;6186709;23;20021;-93
2023/04/18 02:49:28;;;;;;;14.05;9.57;;;8.80;99.90;;;;;;6187475;23;20457;-93
2023/04/18 02:51:54;;;;;;;13.73;9.98;;;8.80;99.90;;;;;;6186112;23;20492;-92
2023/04/18 02:54:20;;;;;;;13.82;9.27;;;8.80;99.90;;;;;;6187578;23;20028;-93
2023/04/18 02:56:46;;;;;;;13.10;9.65;;;8.80;99.90;;;;;;6187148;23;20009;-92
2023/04/18 02:59:11;;;;;;;15.85;10.18;;;8.80;99.90;;;;;;6186261;23;20028;-92
2023/04/18 03:01:37;;;;;;;15.35;10.20;;;8.80;99.90;;;;;;6185411;23;20416;-92
2023/04/18 03:04:03;;;;;;;15.15;9.32;;;8.70;99.90;;;;;;6187882;23;20031;-92
2023/04/18 03:06:28;;;;;;;14.20;9.25;;;8.70;99.90;;;;;;6187777;23;20040;-92
2023/04/18 03:08:54;;;;;;;12.73;9.55;;;8.70;99.90;;;;;;6187133;23;20075;-92
2023/04/18 03:11:21;;;;;;;15.10;10.15;;;8.70;99.90;;;;;;6186576;23;20017;-94
2023/04/18 03:13:46;;;;;;;13.52;9.55;;;8.70;99.90;;;;;;6185636;23;20013;-93
2023/04/18 03:16:12;;;;;;;14.05;9.65;;;8.70;99.90;;;;;;6185880;23;20021;-92
2023/04/18 03:18:37;;;;;;;14.27;9.48;;;8.70;99.90;;;;;;6186138;23;20062;-93
2023/04/18 03:21:03;;;;;;;13.30;10.30;;;8.70;99.90;;;;;;6187795;23;20023;-93
2023/04/18 03:23:29;;;;;;;14.00;10.45;;;8.70;99.90;;;;;;6186980;23;20020;-93
2023/04/18 03:25:54;;;;;;;12.02;9.52;;;8.70;99.90;;;;;;6185921;23;20048;-92
2023/04/18 03:28:20;;;;;;;15.13;9.93;;;8.70;99.90;;;;;;6187501;23;20017;-93
2023/04/18 03:30:46;;;;;;;14.07;9.90;;;8.70;99.90;;;;;;6185234;23;20087;-93
2023/04/18 03:33:13;;;;;;;13.73;9.93;;;8.60;99.90;;;;;;6186393;23;20024;-93
2023/04/18 03:35:39;;;;;;;14.45;9.55;;;8.70;99.90;;;;;;6185796;23;20013;-93
2023/04/18 03:38:05;;;;;;;14.77;9.80;;;8.60;99.90;;;;;;6187568;23;20025;-92
2023/04/18 03:40:30;;;;;;;14.70;9.77;;;8.60;99.90;;;;;;6186230;23;20350;-93
2023/04/18 03:42:56;;;;;;;13.32;9.82;;;8.60;99.90;;;;;;6187439;23;20013;-92
2023/04/18 03:45:22;;;;;;;12.63;9.63;;;8.60;99.90;;;;;;6185101;23;20025;-92
2023/04/18 03:47:47;;;;;;;14.52;9.32;;;8.60;99.90;;;;;;6185295;23;20020;-92
2023/04/18 03:50:13;;;;;;;13.60;9.80;;;8.60;99.90;;;;;;6185716;23;20063;-92
2023/04/18 03:52:38;;;;;;;13.45;9.45;;;8.60;99.90;;;;;;6184958;23;20123;-92
2023/04/18 03:55:04;;;;;;;11.98;9.32;;;8.60;99.90;;;;;;6185964;23;20021;-92
2023/04/18 03:57:30;;;;;;;12.82;9.65;;;8.60;99.90;;;;;;6185460;23;20484;-92
2023/04/18 03:59:55;;;;;;;14.60;9.68;;;8.60;99.90;;;;;;6185272;23;20013;-93
2023/04/18 04:02:21;;;;;;;14.32;9.40;;;8.60;99.90;;;;;;6185562;23;20013;-93
2023/04/18 04:04:47;;;;;;;16.73;9.73;;;8.50;99.90;;;;;;6184305;23;20016;-92
2023/04/18 04:07:13;;;;;;;13.02;8.88;;;8.50;99.90;;;;;;6186748;23;20013;-91
2023/04/18 04:09:38;;;;;;;14.82;9.07;;;8.50;99.90;;;;;;6185064;23;20013;-93
2023/04/18 04:12:04;;;;;;;14.18;9.13;;;8.50;99.90;;;;;;6186538;23;20017;-92
2023/04/18 04:14:30;;;;;;;12.95;9.43;;;8.50;99.90;;;;;;6187012;23;20021;-92
2023/04/18 04:16:55;;;;;;;13.40;9.55;;;8.50;99.90;;;;;;6185677;23;20528;-95
2023/04/18 04:19:21;;;;;;;12.88;9.10;;;8.50;99.90;;;;;;6185293;23;20525;-91
2023/04/18 04:21:47;;;;;;;14.50;9.65;;;8.50;99.90;;;;;;6185499;23;20048;-92
2023/04/18 04:24:12;;;;;;;12.70;8.98;;;8.50;99.90;;;;;;6187682;23;20081;-90
2023/04/18 04:26:39;;;;;;;12.98;9.10;;;8.50;99.90;;;;;;6185064;23;20023;-91
2023/04/18 04:29:04;;;;;;;14.30;9.43;;;8.50;99.90;;;;;;6184594;23;20091;-89
2023/04/18 04:31:30;;;;;;;14.13;8.50;;;8.50;99.90;;;;;;6184875;23;20142;-90
2023/04/18 04:33:56;;;;;;;12.77;9.05;;;8.50;99.90;;;;;;6185523;23;20013;-91
2023/04/18 04:36:23;;;;;;;14.57;9.02;;;8.50;99.90;;;;;;6185827;23;20020;-93
2023/04/18 04:38:51;;;;;;;13.80;8.85;;;8.50;99.90;;;;;;6184168;23;20021;-90
2023/04/18 04:41:16;;;;;;;12.77;9.30;;;8.40;99.90;;;;;;6184493;23;20103;-93
2023/04/18 04:43:42;;;;;;;12.07;9.25;;;8.40;99.90;;;;;;6185562;23;20013;-92
2023/04/18 04:46:08;;;;;;;15.23;8.93;;;8.40;99.90;;;;;;6186224;23;20048;-93
2023/04/18 04:48:33;;;;;;;14.52;8.82;;;8.40;99.90;;;;;;6185166;23;20017;-93
2023/04/18 04:51:00;;;;;;;14.13;9.15;;;8.40;99.90;;;;;;6187642;23;20013;-93
2023/04/18 04:53:29;;;;;;;14.95;9.27;;;8.50;99.90;;;;;;6187880;23;20019;-93
2023/04/18 04:55:54;;;;;;;12.30;8.38;;;8.40;99.90;;;;;;6184542;23;20021;-92
2023/04/18 04:58:20;;;;;;;13.70;9.23;;;8.40;99.90;;;;;;6186852;23;20021;-93
2023/04/18 05:00:46;;;;;;;12.52;8.60;;;8.40;99.90;;;;;;6187511;23;20021;-92
2023/04/18 05:03:11;;;;;;;11.98;8.63;;;8.40;99.90;;;;;;6185433;23;20017;-93
2023/04/18 05:05:37;;;;;;;13.23;9.23;;;8.40;99.90;;;;;;6187147;23;20013;-94
2023/04/18 05:08:03;;;;;;;12.68;8.27;;;8.40;99.90;;;;;;6187060;23;20092;-92
2023/04/18 05:10:29;;;;;;;15.73;9.30;;;8.40;99.90;;;;;;6185245;23;20009;-92
2023/04/18 05:12:55;;;;;;;13.50;9.25;;;8.40;99.90;;;;;;6186335;23;20027;-92
2023/04/18 05:15:21;;;;;;;12.63;8.40;;;8.40;99.90;;;;;;6185147;23;20013;-93
2023/04/18 05:17:47;;;;;;;11.80;8.43;;;8.40;99.90;;;;;;6185649;23;20016;-94
2023/04/18 05:20:13;;;;;;;11.85;8.18;;;8.40;99.90;;;;;;6185762;23;20040;-92
2023/04/18 05:22:38;;;;;;;11.98;8.30;;;8.40;99.90;;;;;;6185397;23;20060;-93
2023/04/18 05:25:05;;;;;;;11.32;8.38;;;8.40;99.90;;;;;;6185731;23;20071;-93
2023/04/18 05:27:30;;;;;;;13.00;9.20;;;8.30;99.90;;;;;;6185560;23;20041;-93
2023/04/18 05:29:56;;;;;;;12.35;8.27;;;8.40;99.90;;;;;;6184721;23;20017;-93
2023/04/18 05:32:21;;;;;;;14.50;8.77;;;8.30;99.90;;;;;;6185857;23;20505;-93
2023/04/18 05:34:47;;;;;;;13.30;8.93;;;8.30;99.90;;;;;;6185598;23;20028;-93
2023/04/18 05:37:13;;;;;;;12.75;9.05;;;8.40;99.90;;;;;;6187107;23;20013;-94
2023/04/18 05:39:39;;;;;;;13.77;9.05;;;8.30;99.90;;;;;;6187646;23;20342;-93
2023/04/18 05:42:05;;;;;;;14.02;8.70;;;8.40;99.90;;;;;;6187883;23;20021;-94
2023/04/18 05:44:30;;;;;;;12.70;8.65;;;8.30;99.90;;;;;;6188809;23;20017;-93
2023/04/18 05:46:56;;;;;;;12.18;8.52;;;8.30;99.90;;;;;;6189184;23;20044;-93
2023/04/18 05:49:22;;;;;;;13.50;8.73;;;8.30;99.90;;;;;;6187713;23;20009;-92
2023/04/18 05:51:48;;;;;;;14.10;8.88;;;8.30;99.90;;;;;;6186557;23;20024;-91
2023/04/18 05:54:20;;;;;;;10.88;8.60;;;8.30;99.90;;;;;;6187255;23;20023;-93
2023/04/18 05:56:46;;;;;;;11.70;8.80;;;8.30;99.90;;;;;;6187030;23;20009;-93
2023/04/18 05:59:11;;;;;;;12.80;8.48;;;8.30;99.90;;;;;;6187378;23;20501;-92
2023/04/18 06:01:37;;;;;;;14.45;9.05;;;8.30;99.90;;;;;;6186942;23;20024;-94
2023/04/18 06:04:02;;;;;;;12.80;8.70;;;8.30;99.90;;;;;;6187746;23;20035;-92
2023/04/18 06:06:28;;;;;;;13.32;8.77;;;8.30;99.90;;;;;;6187476;23;20021;-93
2023/04/18 06:08:54;;;;;;;12.50;8.90;;;8.30;99.90;;;;;;6187538;23;20021;-93
2023/04/18 06:11:20;;;;;;;14.00;9.98;;;8.30;99.90;;;;;;6187558;23;20370;-93
2023/04/18 06:13:46;;;;;;;12.70;9.25;;;8.30;99.90;;;;;;6187207;23;20017;-93
2023/04/18 06:16:12;;;;;;;11.82;8.68;;;8.30;99.90;;;;;;6188567;23;20120;-93
2023/04/18 06:18:37;;;;;;;13.27;9.30;;;8.30;99.90;;;;;;6187237;23;20016;-93
2023/04/18 06:21:03;;;;;;;12.63;8.90;;;8.30;99.90;;;;;;6187932;23;20013;-93
2023/04/18 06:23:29;;;;;;;13.05;9.43;;;8.30;99.90;;;;;;6188313;23;20092;-93
2023/04/18 06:25:56;;;;;;;13.27;9.20;;;8.40;99.90;;;;;;6186343;23;20028;-93
2023/04/18 06:28:22;;;;;;;12.10;9.23;;;8.40;99.90;;;;;;6188988;23;20361;-92
2023/04/18 06:30:47;;;;;;;14.30;9.30;;;8.40;99.90;;;;;;6186818;23;20013;-92
2023/04/18 06:33:13;;;;;;;13.35;9.23;;;8.50;99.90;;;;;;6186630;23;20013;-92
2023/04/18 06:35:39;;;;;;;13.65;9.68;;;8.40;99.90;;;;;;6186910;23;20393;-93
2023/04/18 06:38:04;;;;;;;13.75;9.48;;;8.40;99.90;;;;;;6188817;23;20021;-94
2023/04/18 06:40:30;;;;;;;14.30;9.60;;;8.50;99.90;;;;;;6188190;23;20017;-93
2023/04/18 06:42:56;;;;;;;13.07;10.00;;;8.50;99.90;;;;;;6188468;23;20430;-94
2023/04/18 06:45:21;;;;;;;14.82;9.38;;;8.50;99.90;;;;;;6187743;23;20013;-93
2023/04/18 06:47:47;;;;;;;14.57;9.70;;;8.50;99.90;;;;;;6186204;23;20013;-91
2023/04/18 06:50:14;;;;;;;14.23;9.32;;;8.50;99.90;;;;;;6186200;23;20020;-92
2023/04/18 06:52:43;;;;;;;12.55;9.43;;;8.50;99.90;;;;;;6187310;23;20092;-90
2023/04/18 06:55:10;;;;;;;15.02;10.13;;;8.50;99.90;;;;;;6186780;23;20450;-92
2023/04/18 06:57:36;;;;;;;12.73;9.30;;;8.50;99.90;;;;;;6187301;23;20025;-91
2023/04/18 07:00:04;;;;;;;12.57;9.70;;;8.60;99.90;;;;;;6188272;23;20024;-91
2023/04/18 07:02:29;;;;;;;14.32;9.88;;;8.60;99.90;;;;;;6185494;23;20043;-91
2023/04/18 07:04:55;;;;;;;15.68;9.98;;;8.60;99.90;;;;;;6187274;23;20021;-92
2023/04/18 07:07:21;;;;;;;13.60;9.82;;;8.60;99.90;;;;;;6186280;23;20071;-91
2023/04/18 07:09:48;;;;;;;15.45;9.82;;;8.60;99.90;;;;;;6185058;23;20017;-93
2023/04/18 07:12:14;;;;;;;13.93;9.65;;;8.60;99.90;;;;;;6186371;23;20013;-91
2023/04/18 07:14:40;;;;;;;13.65;9.20;;;8.60;99.90;;;;;;6185362;23;20088;-92
2023/04/18 07:17:05;;;;;;;13.63;9.15;;;8.60;99.90;;;;;;6186557;23;20068;-93
2023/04/18 07:19:31;;;;;;;13.88;9.07;;;8.60;99.90;;;;;;6188185;23;20013;-92
2023/04/18 07:21:56;;;;;;;14.43;9.32;;;8.60;99.90;;;;;;6187849;23;20013;-92
2023/04/18 07:24:22;;;;;;;13.88;8.93;;;8.70;99.90;;;;;;6187945;23;20059;-92
2023/04/18 07:26:52;;;;;;;14.88;9.68;;;8.70;99.90;;;;;;6188293;23;20080;-93
2023/04/18 07:29:18;;;;;;;13.35;9.55;;;8.70;99.90;;;;;;6186437;23;20024;-93
2023/04/18 07:31:44;;;;;;;13.85;9.32;;;8.70;99.90;;;;;;6186528;23;20028;-93
2023/04/18 07:34:10;;;;;;;11.95;9.05;;;8.80;99.90;;;;;;6188560;23;20013;-93
2023/04/18 07:36:36;;;;;;;14.32;9.70;;;8.80;99.90;;;;;;6185472;23;20020;-93
2023/04/18 07:39:02;;;;;;;16.40;9.02;;;8.80;99.90;;;;;;6185997;23;20024;-93
2023/04/18 07:41:28;;;;;;;14.13;9.50;;;8.80;99.90;;;;;;6186346;23;20405;-93
2023/04/18 07:43:53;;;;;;;13.68;9.73;;;8.90;99.90;;;;;;6186962;23;20041;-92
2023/04/18 07:46:19;;;;;;;12.40;9.48;;;8.90;99.90;;;;;;6187807;23;20450;-92
2023/04/18 07:48:45;;;;;;;13.40;9.55;;;8.90;99.90;;;;;;6186146;23;20021;-92
2023/04/18 07:51:11;;;;;;;14.32;9.70;;;9.00;99.90;;;;;;6185523;23;20021;-92
2023/04/18 07:53:36;;;;;;;12.80;9.45;;;9.00;99.90;;;;;;6185798;23;20013;-92
2023/04/18 07:56:02;;;;;;;12.75;9.85;;;9.00;99.90;;;;;;6185812;23;20059;-92
2023/04/18 07:58:28;;;;;;;14.38;10.32;;;9.10;99.90;;;;;;6186579;23;20076;-91
2023/04/18 08:00:53;;;;;;;12.98;9.02;;;9.20;99.90;;;;;;6185292;23;20322;-91
2023/04/18 08:03:19;;;;;;;14.27;9.30;;;9.20;99.90;;;;;;6185846;23;20095;-92
2023/04/18 08:05:45;;;;;;;13.00;8.90;;;9.30;99.90;;;;;;6184542;23;20025;-90
2023/04/18 08:08:11;;;;;;;13.30;8.35;;;9.40;99.90;;;;;;6185961;23;20009;-92
2023/04/18 08:10:37;;;;;;;14.05;8.88;;;9.40;99.90;;;;;;6185426;23;20013;-92
2023/04/18 08:13:03;;;;;;;11.15;8.55;;;9.50;99.90;;;;;;6184822;23;20028;-92
2023/04/18 08:15:31;;;;;;;12.93;8.77;;;9.60;99.90;;;;;;6185469;23;20346;-92
2023/04/18 08:17:58;;;;;;;11.13;8.40;;;9.70;99.90;;;;;;6184565;23;20465;-90
2023/04/18 08:20:24;;;;;;;14.98;8.40;;;9.80;99.90;;;;;;6185089;23;20013;-92
2023/04/18 08:22:50;;;;;;;13.07;8.85;;;9.80;99.90;;;;;;6184976;23;20021;-91
2023/04/18 08:25:16;;;;;;;11.60;8.27;;;9.90;99.90;;;;;;6184259;23;20009;-92
2023/04/18 08:27:42;;;;;;;12.35;8.02;;;10.00;99.90;;;;;;6185253;23;20353;-92
2023/04/18 08:30:08;;;;;;;13.52;8.30;;;10.00;99.90;;;;;;6185346;23;20049;-93
2023/04/18 08:32:35;;;;;;;13.27;7.78;;;10.10;99.90;;;;;;6183203;23;20020;-92
2023/04/18 08:35:02;;;;;;;10.70;7.40;;;10.20;99.90;;;;;;6185032;23;20028;-91
2023/04/18 08:37:29;;;;;;;11.55;8.27;;;10.30;99.90;;;;;;6187024;23;20080;-91
2023/04/18 08:39:54;;;;;;;12.13;7.93;;;10.30;99.90;;;;;;6183659;23;20420;-90
2023/04/18 08:42:21;;;;;;;11.55;7.95;;;10.50;99.90;;;;;;6187251;23;20021;-92
2023/04/18 08:44:48;;;;;;;11.57;7.80;;;10.50;99.90;;;;;;6184922;23;20009;-93
2023/04/18 08:47:14;;;;;;;10.50;7.80;;;10.60;99.90;;;;;;6184482;23;20092;-92
2023/04/18 08:49:40;;;;;;;12.18;7.78;;;10.70;99.90;;;;;;6184600;23;20016;-91
2023/04/18 08:52:17;;;;;;;10.55;7.70;;;10.80;99.90;;;;;;6185241;23;20017;-92
2023/04/18 08:54:46;;;;;;;11.38;7.70;;;10.90;99.90;;;;;;6184127;23;20021;-94
2023/04/18 08:57:22;;;;;;;10.77;7.63;;;10.90;99.90;;;;;;6184932;23;20021;-93
2023/04/18 08:59:49;;;;;;;10.75;8.05;;;11.00;99.90;;;;;;6186950;23;20021;-92
2023/04/18 09:02:15;;;;;;;12.60;8.25;;;11.00;99.90;;;;;;6184445;23;20044;-91
2023/04/18 09:04:47;;;;;;;11.27;6.80;;;11.10;99.90;;;;;;6184663;23;20513;-92
2023/04/18 09:07:15;;;;;;;10.60;7.07;;;11.20;99.90;;;;;;6184354;23;20024;-92
2023/04/18 09:09:44;;;;;;;10.95;7.97;;;11.20;99.90;;;;;;6186454;23;20449;-91
2023/04/18 09:12:13;;;;;;;10.02;7.05;;;11.20;99.90;;;;;;6186729;23;20036;-92
2023/04/18 09:14:44;;;;;;;11.35;7.72;;;11.30;99.90;;;;;;6183948;23;20445;-93
2023/04/18 09:17:17;;;;;;;10.40;7.50;;;11.30;99.90;;;;;;6184949;23;20016;-92
2023/04/18 09:19:53;;;;;;;9.90;7.13;;;11.40;99.90;;;;;;6184412;23;20442;-92
2023/04/18 09:22:18;;;;;;;10.18;7.20;;;11.50;99.90;;;;;;6183956;23;20021;-93
2023/04/18 09:24:56;;;;;;;10.30;7.45;;;11.60;99.90;;;;;;6186106;23;20056;-92
2023/04/18 09:27:22;;;;;;;9.93;7.05;;;11.60;99.90;;;;;;6186586;23;20017;-92
2023/04/18 09:29:50;;;;;;;9.75;7.15;;;11.60;99.90;;;;;;6183622;23;20049;-91
2023/04/18 09:32:26;;;;;;;11.00;6.68;;;11.70;99.90;;;;;;6184893;23;20020;-91
2023/04/18 09:34:56;;;;;;;10.32;6.88;;;11.70;99.90;;;;;;6184066;23;20214;-91
2023/04/18 09:37:23;;;;;;;9.48;7.03;;;11.80;99.90;;;;;;6184109;23;20018;-92
2023/04/18 09:39:52;;;;;;;10.40;6.88;;;11.90;99.90;;;;;;6184418;23;20028;-92
2023/04/18 09:42:19;;;;;;;8.80;6.75;;;11.90;99.90;;;;;;6183650;23;20024;-91
2023/04/18 09:45:12;;;;;;;9.52;7.00;;;12.10;99.90;;;;;;6185752;23;20024;-93
2023/04/18 09:47:38;;;;;;;9.57;6.80;;;12.10;99.90;;;;;;6179668;23;20014;-91
2023/04/18 09:50:05;;;;;;;10.52;6.60;;;12.20;99.90;;;;;;6184296;23;20340;-92
2023/04/18 09:52:34;;;;;;;11.70;6.60;;;12.20;99.90;;;;;;6184763;23;20013;-92
2023/04/18 09:55:03;;;;;;;9.30;7.20;;;12.30;99.90;;;;;;6186053;23;20009;-89
2023/04/18 09:57:30;;;;;;;9.27;6.65;;;12.40;99.90;;;;;;6183391;23;20016;-90
2023/04/18 10:00:22;;;;;;;9.88;6.28;;;12.50;99.90;;;;;;6184208;23;20017;-91
2023/04/18 10:02:49;;;;;;;8.90;6.72;;;12.50;99.90;;;;;;6185970;23;20017;-91
2023/04/18 10:05:16;;;;;;;10.05;6.95;;;12.60;99.90;;;;;;6185370;23;20027;-91
2023/04/18 10:07:46;;;;;;;10.57;6.50;;;12.60;99.90;;;;;;6183829;23;20017;-92
2023/04/18 10:10:12;;;;;;;10.60;6.55;;;12.70;99.80;;;;;;6185951;23;20454;-92
2023/04/18 10:12:38;;;;;;;10.73;7.00;;;12.70;99.90;;;;;;6183155;23;20092;-93
2023/04/18 10:15:06;;;;;;;10.88;6.75;;;12.80;99.90;;;;;;6184685;23;20107;-91
2023/04/18 10:17:45;;;;;;;9.05;6.70;;;12.90;99.90;;;;;;6183231;23;20342;-91
2023/04/18 10:20:22;;;;;;;8.70;6.57;;;12.90;99.90;;;;;;6184238;23;20053;-92
2023/04/18 10:22:49;;;;;;;8.85;6.63;;;13.00;99.90;;;;;;6185909;23;20017;-93
2023/04/18 10:25:39;;;;;;;10.63;6.10;;;13.10;99.90;;;;;;6184700;23;20017;-90
2023/04/18 10:28:06;;;;;;;9.95;6.68;;;13.10;99.90;;;;;;6188097;23;20071;-91
2023/04/18 10:30:41;;;;;;;10.60;6.90;;;13.30;99.90;;;;;;6185609;23;20095;-91
2023/04/18 10:33:25;;;;;;;8.20;5.95;;;13.30;99.90;;;;;;6185062;23;20028;-90
2023/04/18 10:35:58;;;;;;;11.25;6.38;;;13.40;99.90;;;;;;6187726;23;20013;-92
2023/04/18 10:38:24;;;;;;;;;;;13.50;99.90;;;;;;6186014;23;20024;-91
2023/04/18 10:40:49;;;;;;;8.23;6.05;;;13.50;99.90;;;;;;6187038;23;19916;-91
2023/04/18 10:43:15;;;;;;;9.65;6.30;;;13.50;99.80;;;;;;6187584;23;20024;-92
2023/04/18 10:45:41;;;;;;;10.52;6.45;;;13.70;99.90;;;;;;6186403;23;20017;-92
2023/04/18 10:48:23;;;;;;;7.85;6.13;;;13.70;99.90;;;;;;6185941;23;20099;-90
2023/04/18 10:51:11;;;;;;;9.10;6.10;;;13.80;99.90;;;;;;6185734;23;20024;-91
2023/04/18 10:53:36;;;;;;;8.55;6.20;;;13.90;99.90;;;;;;6184954;23;20103;-91
2023/04/18 10:56:03;;;;;;;9.23;6.65;;;14.00;99.90;;;;;;6187092;23;20017;-90
2023/04/18 10:58:33;;;;;;;11.13;6.22;;;14.00;99.90;;;;;;6185750;23;20021;-91
2023/04/18 11:01:00;;;;;;;10.13;6.95;;;14.10;99.90;;;;;;6187071;23;20024;-91
2023/04/18 11:03:32;;;;;;;9.35;6.45;;;14.20;99.90;;;;;;6185774;23;20017;-92
2023/04/18 11:06:01;;;;;;;8.85;6.25;;;14.30;99.90;;;;;;6187877;23;20052;-91
2023/04/18 11:08:27;;;;;;;8.80;6.40;;;14.40;99.90;;;;;;6184994;23;20016;-91
2023/04/18 11:11:01;;;;;;;9.43;6.80;;;14.40;99.90;;;;;;6186973;23;20016;-91
2023/04/18 11:13:27;;;;;;;9.50;6.90;;;14.50;99.90;;;;;;6186059;23;20017;-92
2023/04/18 11:15:53;;;;;;;11.98;7.45;;;14.50;99.90;;;;;;6186528;23;20020;-89
2023/04/18 11:18:18;;;;;;;9.90;7.20;;;14.60;99.90;;;;;;6186873;23;20013;-91
2023/04/18 11:20:49;;;;;;;11.80;7.82;;;14.70;99.90;;;;;;6186435;23;20021;-92
2023/04/18 11:23:19;;;;;;;10.38;7.30;;;14.70;99.90;;;;;;6160852;23;20023;-90
2023/04/18 11:25:45;;;;;;;9.77;7.35;;;14.70;99.90;;;;;;6186784;23;20045;-91
2023/04/18 11:28:12;;;;;;;9.10;7.20;;;14.80;99.90;;;;;;6187223;23;20459;-94
2023/04/18 11:30:41;;;;;;;11.95;7.70;;;14.90;99.90;;;;;;6185724;23;20072;-93
2023/04/18 11:33:11;;;;;;;11.85;8.85;;;14.90;99.90;;;;;;6185337;23;20024;-95
2023/04/18 11:35:41;;;;;;;12.88;7.78;;;15.00;99.90;;;;;;6185580;23;20092;-92
2023/04/18 11:38:08;;;;;;;12.02;7.32;;;15.00;99.50;;;;;;6185717;23;20041;-92
2023/04/18 11:40:35;;;;;;;9.30;7.45;;;15.10;99.30;;;;;;6184122;23;20349;-91
2023/04/18 11:43:02;;;;;;;12.20;8.40;;;15.10;99.30;;;;;;6184369;23;20009;-91
2023/04/18 11:45:28;;;;;;;12.77;8.00;;;15.20;99.70;;;;;;6187008;23;20437;-93
2023/04/18 11:47:59;;;;;;;11.13;7.93;;;15.20;99.50;;;;;;6185503;23;20061;-94
2023/04/18 11:50:26;;;;;;;10.50;8.18;;;15.30;98.30;;;;;;6185506;23;20445;-93
2023/04/18 11:52:53;;;;;;;13.15;7.95;;;15.30;98.20;;;;;;6187751;23;20231;-94
2023/04/18 11:55:24;;;;;;;10.45;8.00;;;15.40;97.40;;;;;;6186440;23;20017;-92
2023/04/18 11:57:57;;;;;;;11.70;7.78;;;15.30;97.80;;;;;;6184966;23;20013;-93
2023/04/18 12:00:32;;;;;;;12.80;7.80;;;15.40;97.60;;;;;;6185342;23;20021;-92
2023/04/18 12:02:58;;;;;;;14.32;8.40;;;15.40;97.80;;;;;;6184987;23;20433;-94
2023/04/18 12:05:32;;;;;;;9.88;7.38;;;15.40;97.50;;;;;;6187503;23;20017;-92
2023/04/18 12:08:08;;;;;;;10.88;8.40;;;15.50;97.50;;;;;;6186150;23;20021;-94
2023/04/18 12:10:35;;;;;;;10.15;7.78;;;15.50;98.10;;;;;;6185084;23;20074;-93
2023/04/18 12:13:04;;;;;;;12.52;8.68;;;15.60;98.10;;;;;;6186017;23;20017;-94
2023/04/18 12:15:30;;;;;;;9.30;8.00;;;15.60;98.40;;;;;;6187570;23;20088;-94
2023/04/18 12:18:01;;;;;;;11.30;8.10;;;15.70;98.50;;;;;;6186918;23;20064;-93
2023/04/18 12:20:38;;;;;;;12.88;8.63;;;15.80;98.60;;;;;;6187147;23;20016;-93
2023/04/18 12:23:04;;;;;;;10.93;8.02;;;15.70;98.00;;;;;;6186932;23;20013;-92
2023/04/18 12:25:31;;;;;;;10.80;8.10;;;15.80;97.90;;;;;;6186081;23;20017;-92
2023/04/18 12:27:59;;;;;;;11.18;8.00;;;15.80;98.20;;;;;;6184640;23;20020;-91
2023/04/18 12:30:31;;;;;;;11.77;8.27;;;15.90;98.70;;;;;;6184422;23;20446;-92
2023/04/18 12:32:59;;;;;;;10.15;8.10;;;15.90;98.60;;;;;;6185153;23;20013;-91
2023/04/18 12:35:26;;;;;;;10.32;8.48;;;16.00;98.50;;;;;;6184404;23;20016;-90
2023/04/18 12:37:54;;;;;;;9.60;7.78;;;16.00;98.30;;;;;;6184311;23;20357;-92
2023/04/18 12:40:21;;;;;;;9.68;7.65;;;16.10;98.30;;;;;;6183533;23;20023;-91
2023/04/18 12:42:48;;;;;;;9.95;7.95;;;16.10;98.40;;;;;;6186037;23;20017;-91